Main page
METAR-TAF:

METAR-TAF

Airports :

Angads Airport

Oujda, Morocco

latitude: 34-47N, longitude: 001-56W, elevation: 468 m

Current weather observation

The report was made 27 minutes ago, at 15:00 UTC
Wind 11 kt from the Northwest, varying between West/Northwest and North
Temperature 17°C
Humidity 59%
Pressure 1015 hPa
Visibility 10 km or more
Few clouds at a height of 2600 ft
Scattered clouds at a height of 4000 ft

METAR: GMFO 281500Z 32011KT 290V360 9999 FEW026 SCT040 17/09 Q1015 NOSIG

Time: 16:27 (15:27 UTC)

Forecast

The report was made 4 hours and 27 minutes ago, at 11:00 UTC
Forecast valid from 28 at 12 UTC to 29 at 18 UTC
Wind 16 kt from the North/Northeast
Visibility 10 km or more
Scattered clouds at a height of 2600 ft
Broken clouds at a height of 5000 ft
Temporary
from 28 at 20 UTC to 29 at 08 UTC
Wind 4 kt from the South/Southwest

TAF: GMFO 281100Z 2812/2918 02016KT 9999 SCT026 BKN050 TEMPO 2820/2908 20004KT

Weather observations and forecasts of more than 4000 airports (METAR and TAF reports).

The available stations are represented by yellow and red dots on the map.

Hover mouse over dot to see the name of the station.

Then click to see weather observations and forecasts.

To change the map : click on the green buttons with a black cross to zoom in, on the green button with a dash to zoom out, or on the green arrows for adjacent maps.


METAR-TAF: